createdAt,value
2022-08-09T00:01:00.322Z,17.28
2022-08-09T00:04:05.801Z,18.56
2022-08-09T00:06:57.604Z,19.93
2022-08-09T00:09:49.742Z,20.80
2022-08-09T00:12:41.980Z,21.03
2022-08-09T00:15:59.637Z,20.27
2022-08-09T00:18:52.862Z,19.53
2022-08-09T00:21:56.095Z,19.07
2022-08-09T00:24:48.835Z,18.70
2022-08-09T00:27:43.013Z,18.41
2022-08-09T00:30:35.803Z,18.18
2022-08-09T00:33:32.693Z,17.98
2022-08-09T00:36:41.490Z,17.79
2022-08-09T00:40:12.465Z,17.64
2022-08-09T00:44:15.771Z,17.48
2022-08-09T00:46:00.270Z,17.33
2022-08-09T00:48:55.989Z,17.19
2022-08-09T00:51:54.275Z,17.06
2022-08-09T00:54:48.578Z,16.95
2022-08-09T00:57:41.013Z,16.87
2022-08-09T01:00:35.143Z,16.79
2022-08-09T01:03:36.539Z,17.12
2022-08-09T01:06:54.468Z,18.79
2022-08-09T01:09:55.910Z,20.07
2022-08-09T01:12:56.753Z,20.45
2022-08-09T01:15:52.539Z,19.67
2022-08-09T01:18:38.501Z,18.98
2022-08-09T01:21:50.842Z,18.37
2022-08-09T01:24:58.368Z,17.89
2022-08-09T01:27:57.003Z,17.53
2022-08-09T01:30:53.108Z,17.26
2022-08-09T01:33:50.042Z,17.01
2022-08-09T01:36:45.040Z,16.79
2022-08-09T01:39:40.774Z,16.57
2022-08-09T01:42:36.041Z,16.36
2022-08-09T01:45:30.991Z,16.19
2022-08-09T01:48:29.704Z,16.45
2022-08-09T01:51:23.378Z,17.97
2022-08-09T01:54:21.447Z,19.18
2022-08-09T01:57:18.543Z,19.88
2022-08-09T02:00:34.569Z,20.00
2022-08-09T02:03:29.613Z,19.02
2022-08-09T02:06:38.595Z,18.23
2022-08-09T02:09:42.092Z,17.63
2022-08-09T02:12:36.484Z,17.22
2022-08-09T02:15:48.897Z,16.90
2022-08-09T02:18:47.895Z,16.63
2022-08-09T02:21:45.222Z,16.44
2022-08-09T02:24:42.308Z,16.30
2022-08-09T02:27:57.367Z,16.17
2022-08-09T02:30:56.170Z,16.04
2022-08-09T02:34:07.191Z,16.37
2022-08-09T02:37:12.116Z,17.99
2022-08-09T02:40:10.549Z,19.04
2022-08-09T02:43:04.741Z,19.31
2022-08-09T02:46:00.073Z,18.46
2022-08-09T02:48:55.711Z,17.69
2022-08-09T02:51:51.357Z,17.13
2022-08-09T02:54:54.401Z,16.71
2022-08-09T02:57:59.960Z,16.38
2022-08-09T03:00:58.367Z,16.12
2022-08-09T03:04:16.651Z,16.36
2022-08-09T03:07:13.824Z,17.96
2022-08-09T03:10:06.172Z,19.16
2022-08-09T03:12:51.934Z,19.53
2022-08-09T03:16:06.018Z,18.70
2022-08-09T03:19:02.066Z,17.80
2022-08-09T03:21:55.934Z,17.22
2022-08-09T03:24:52.766Z,16.80
2022-08-09T03:28:00.580Z,16.50
2022-08-09T03:30:44.010Z,16.30
2022-08-09T03:33:53.627Z,16.15
2022-08-09T03:36:58.351Z,16.53
2022-08-09T03:39:55.635Z,18.19
2022-08-09T03:42:48.695Z,19.41
2022-08-09T03:46:03.358Z,19.87
2022-08-09T03:48:56.083Z,19.17
2022-08-09T03:51:57.009Z,18.53
2022-08-09T03:54:54.015Z,18.09
2022-08-09T03:58:03.193Z,17.81
2022-08-09T04:00:59.323Z,17.58
2022-08-09T04:04:02.210Z,17.34
2022-08-09T04:06:58.239Z,17.14
2022-08-09T04:09:53.666Z,17.01
2022-08-09T04:12:49.858Z,16.90
2022-08-09T04:16:19.352Z,16.80
2022-08-09T04:18:56.742Z,16.72
2022-08-09T04:21:49.422Z,16.94
2022-08-09T04:24:41.423Z,18.20
2022-08-09T04:27:33.946Z,19.44
2022-08-09T04:30:30.419Z,19.93
2022-08-09T04:33:23.640Z,19.39
2022-08-09T04:36:21.055Z,18.86
2022-08-09T04:39:15.952Z,18.48
2022-08-09T04:42:09.357Z,18.18
2022-08-09T04:45:02.905Z,18.01
2022-08-09T04:48:00.200Z,19.10
2022-08-09T04:50:56.392Z,20.50
2022-08-09T04:53:40.685Z,21.03
2022-08-09T04:56:34.670Z,20.43
2022-08-09T04:59:26.966Z,19.81
2022-08-09T05:02:22.259Z,19.45
2022-08-09T05:05:14.248Z,19.22
2022-08-09T05:08:23.711Z,19.00
2022-08-09T05:11:23.545Z,18.84
2022-08-09T05:14:22.689Z,18.74
2022-08-09T05:18:37.604Z,18.67
2022-08-09T05:20:14.353Z,18.60
2022-08-09T05:23:56.997Z,18.58
2022-08-09T05:26:35.300Z,18.56
2022-08-09T05:29:31.398Z,18.49
2022-08-09T05:32:30.096Z,18.45
2022-08-09T05:35:22.623Z,18.49
2022-08-09T05:38:22.109Z,18.49
2022-08-09T05:41:04.286Z,18.47
2022-08-09T05:43:59.130Z,18.51
2022-08-09T05:46:43.632Z,18.57
2022-08-09T05:50:24.461Z,18.59
2022-08-09T05:52:53.628Z,18.62
2022-08-09T05:55:46.184Z,18.68
2022-08-09T05:58:32.500Z,18.77
2022-08-09T06:01:25.807Z,18.87
2022-08-09T06:04:25.768Z,18.91
2022-08-09T06:07:28.153Z,19.01
2022-08-09T06:10:20.194Z,19.08
2022-08-09T06:13:18.626Z,19.11
2022-08-09T06:16:12.621Z,19.17
2022-08-09T06:19:04.791Z,19.21
2022-08-09T06:21:58.771Z,19.28
2022-08-09T06:24:42.168Z,19.36
2022-08-09T06:27:42.436Z,19.43
2022-08-09T06:30:40.166Z,19.44
2022-08-09T06:33:41.439Z,19.48
2022-08-09T06:36:33.969Z,19.56
2022-08-09T06:39:26.108Z,19.69
2022-08-09T06:42:45.057Z,19.78
2022-08-09T06:46:06.262Z,19.93
2022-08-09T06:48:51.491Z,20.20
2022-08-09T06:51:50.484Z,20.49
2022-08-09T06:54:43.291Z,20.80
2022-08-09T06:58:01.746Z,21.06
2022-08-09T07:00:58.416Z,21.38
2022-08-09T07:03:53.098Z,21.70
2022-08-09T07:06:46.246Z,21.98
2022-08-09T07:09:55.092Z,22.34
2022-08-09T07:12:57.095Z,22.87
2022-08-09T07:16:35.098Z,23.34
2022-08-09T07:18:56.306Z,23.74
2022-08-09T07:21:55.685Z,24.01
2022-08-09T07:24:49.990Z,24.07
2022-08-09T07:27:53.289Z,24.01
2022-08-09T07:30:47.451Z,23.94
2022-08-09T07:33:52.900Z,23.85
2022-08-09T07:36:47.391Z,23.77
2022-08-09T07:39:41.616Z,23.70
2022-08-09T07:42:34.537Z,23.67
2022-08-09T07:45:39.178Z,23.67
2022-08-09T07:48:32.501Z,23.72
2022-08-09T07:52:05.013Z,23.73
2022-08-09T07:54:31.702Z,23.66
2022-08-09T07:57:23.765Z,23.62
2022-08-09T08:00:36.257Z,23.56
2022-08-09T08:03:18.804Z,23.51
2022-08-09T08:06:09.845Z,23.54
2022-08-09T08:09:07.679Z,23.83
2022-08-09T08:12:27.721Z,24.17
2022-08-09T08:15:13.955Z,24.30
2022-08-09T08:18:06.598Z,24.35
2022-08-09T08:20:59.439Z,24.51
2022-08-09T08:23:55.925Z,24.72
2022-08-09T08:26:55.849Z,24.91
2022-08-09T08:29:50.285Z,24.99
2022-08-09T08:32:52.425Z,24.96
2022-08-09T08:35:25.004Z,24.89
2022-08-09T08:38:29.509Z,24.81
2022-08-09T08:41:22.086Z,24.73
2022-08-09T08:44:05.450Z,24.72
2022-08-09T08:47:05.099Z,24.77
2022-08-09T08:50:05.981Z,24.87
2022-08-09T08:53:00.552Z,24.96
2022-08-09T08:55:53.217Z,25.02
2022-08-09T08:58:46.423Z,25.07
2022-08-09T09:01:52.270Z,25.15
2022-08-09T09:04:52.541Z,25.13
2022-08-09T09:07:50.540Z,25.31
2022-08-09T09:10:44.979Z,25.63
2022-08-09T09:13:56.643Z,25.95
2022-08-09T09:16:50.470Z,26.18
2022-08-09T09:19:45.025Z,26.36
2022-08-09T09:26:00.867Z,26.78
2022-08-09T09:29:04.526Z,26.91
2022-08-09T09:32:15.411Z,26.90
2022-08-09T09:35:10.409Z,26.73
2022-08-09T09:38:09.554Z,26.59
2022-08-09T09:41:10.784Z,26.71
2022-08-09T09:44:12.148Z,26.85
2022-08-09T09:47:16.738Z,26.91
2022-08-09T09:50:14.354Z,26.99
2022-08-09T09:53:10.446Z,27.08
2022-08-09T09:56:05.557Z,27.02
2022-08-09T09:58:57.967Z,26.96
2022-08-09T10:02:02.032Z,26.97
2022-08-09T10:05:08.811Z,26.99
2022-08-09T10:08:27.299Z,27.24
2022-08-09T10:12:00.376Z,27.51
2022-08-09T10:14:35.098Z,27.53
2022-08-09T10:17:50.916Z,27.43
2022-08-09T10:20:48.145Z,27.32
2022-08-09T10:23:45.911Z,27.34
2022-08-09T10:26:41.151Z,27.46
2022-08-09T10:30:41.953Z,27.66
2022-08-09T10:32:48.202Z,27.79
2022-08-09T10:35:40.790Z,27.71
2022-08-09T10:38:56.541Z,27.54
2022-08-09T10:41:42.599Z,27.38
2022-08-09T10:44:37.279Z,27.12
2022-08-09T10:48:17.211Z,26.83
2022-08-09T10:51:12.303Z,26.51
2022-08-09T10:54:13.006Z,26.25
2022-08-09T10:57:11.209Z,26.00
2022-08-09T11:00:25.486Z,25.91
2022-08-09T11:03:46.848Z,25.85
2022-08-09T11:06:38.490Z,25.82
2022-08-09T11:09:53.379Z,25.77
2022-08-09T11:13:49.198Z,25.82
2022-08-09T11:16:40.843Z,25.91
2022-08-09T11:20:11.088Z,26.09
2022-08-09T11:23:10.339Z,26.38
2022-08-09T11:26:04.094Z,26.69
2022-08-09T11:28:57.299Z,26.99
2022-08-09T11:31:52.564Z,27.27
2022-08-09T11:34:52.447Z,27.56
2022-08-09T11:37:49.823Z,27.79
2022-08-09T11:40:42.738Z,28.02
2022-08-09T11:43:48.967Z,28.15
2022-08-09T11:47:01.106Z,28.10
2022-08-09T11:50:55.663Z,28.10
2022-08-09T11:54:01.257Z,28.38
2022-08-09T11:56:47.766Z,28.68
2022-08-09T11:59:41.015Z,28.90
2022-08-09T12:02:50.946Z,28.94
2022-08-09T12:05:47.339Z,29.00
2022-08-09T12:08:45.967Z,29.07
2022-08-09T12:12:02.097Z,29.09
2022-08-09T12:15:07.569Z,29.04
2022-08-09T12:18:01.531Z,29.01
2022-08-09T12:20:54.033Z,28.97
2022-08-09T12:23:58.832Z,28.78
2022-08-09T12:29:12.071Z,28.68
2022-08-09T12:30:35.616Z,28.65
2022-08-09T12:33:50.957Z,28.67
2022-08-09T12:36:58.652Z,28.72
2022-08-09T12:40:08.423Z,28.76
2022-08-09T12:43:00.828Z,28.45
2022-08-09T12:46:00.151Z,28.12
2022-08-09T12:48:54.442Z,27.94
2022-08-09T12:52:02.465Z,27.83
2022-08-09T12:55:00.749Z,27.72
2022-08-09T12:58:24.238Z,27.80
2022-08-09T13:01:27.190Z,28.09
2022-08-09T13:04:36.293Z,28.32
2022-08-09T13:07:51.400Z,28.47
2022-08-09T13:10:52.368Z,28.68
2022-08-09T13:14:36.997Z,28.65
2022-08-09T13:16:58.735Z,28.58
2022-08-09T13:20:10.562Z,28.36
2022-08-09T13:24:16.341Z,27.95
2022-08-09T13:26:37.066Z,27.66
2022-08-09T13:29:33.589Z,27.41
2022-08-09T13:32:48.916Z,27.26
2022-08-09T13:36:37.413Z,27.20
2022-08-09T13:38:59.112Z,27.21
2022-08-09T13:42:01.351Z,27.29
2022-08-09T13:44:53.752Z,27.52
2022-08-09T13:47:51.259Z,27.75
2022-08-09T13:50:46.841Z,27.97
2022-08-09T13:53:43.536Z,28.28
2022-08-09T13:56:37.141Z,28.68
2022-08-09T13:59:41.800Z,29.04
2022-08-09T14:02:28.524Z,29.28
2022-08-09T14:06:01.459Z,29.51
2022-08-09T14:08:33.367Z,29.68
2022-08-09T14:11:25.663Z,29.95
2022-08-09T14:14:25.705Z,30.11
2022-08-09T14:17:22.619Z,30.28
2022-08-09T14:20:16.216Z,30.21
2022-08-09T14:23:08.423Z,29.83
2022-08-09T14:26:12.961Z,29.45
2022-08-09T14:30:04.257Z,29.09
2022-08-09T14:32:28.773Z,28.75
2022-08-09T14:35:02.777Z,28.37
2022-08-09T14:38:02.814Z,28.14
2022-08-09T14:41:01.980Z,27.87
2022-08-09T14:44:11.120Z,27.61
2022-08-09T14:47:29.037Z,27.38
2022-08-09T14:50:17.407Z,27.19
2022-08-09T14:53:13.956Z,27.13
2022-08-09T14:56:08.016Z,27.06
2022-08-09T14:59:05.335Z,26.96
2022-08-09T15:02:06.641Z,26.86
2022-08-09T15:05:01.434Z,26.68
2022-08-09T15:07:56.847Z,26.52
2022-08-09T15:11:00.798Z,26.47
2022-08-09T15:14:04.092Z,26.47
2022-08-09T15:16:57.256Z,26.41
2022-08-09T15:19:54.605Z,26.33
2022-08-09T15:23:02.837Z,26.27
2022-08-09T15:25:57.574Z,26.27
2022-08-09T15:28:54.683Z,26.29
2022-08-09T15:31:47.502Z,26.23
2022-08-09T15:34:39.849Z,26.03
2022-08-09T15:37:57.252Z,25.83
2022-08-09T15:40:51.618Z,25.74
2022-08-09T15:43:43.780Z,25.72
2022-08-09T15:46:36.125Z,25.60
2022-08-09T15:49:31.109Z,25.46
2022-08-09T15:52:24.513Z,25.34
2022-08-09T15:55:19.996Z,25.22
2022-08-09T15:58:26.399Z,25.09
2022-08-09T16:01:19.502Z,24.91
2022-08-09T16:04:13.405Z,24.77
2022-08-09T16:07:06.890Z,24.64
2022-08-09T16:10:04.320Z,24.53
2022-08-09T16:12:57.576Z,24.38
2022-08-09T16:16:04.421Z,24.24
2022-08-09T16:19:02.843Z,24.11
2022-08-09T16:21:56.400Z,24.01
2022-08-09T16:24:56.883Z,23.91
2022-08-09T16:27:52.894Z,23.84
2022-08-09T16:30:58.840Z,23.76
2022-08-09T16:33:45.011Z,23.65
2022-08-09T16:36:37.738Z,23.55
2022-08-09T16:39:30.808Z,23.47
2022-08-09T16:42:45.298Z,23.40
2022-08-09T16:45:44.055Z,23.34
2022-08-09T16:48:55.921Z,23.30
2022-08-09T16:51:53.942Z,23.25
2022-08-09T16:54:47.815Z,23.21
2022-08-09T16:58:08.668Z,23.16
2022-08-09T17:00:55.391Z,23.14
2022-08-09T17:03:47.764Z,23.11
2022-08-09T17:06:47.390Z,23.06
2022-08-09T17:09:53.961Z,23.01
2022-08-09T17:12:55.534Z,22.95
2022-08-09T17:16:00.365Z,22.88
2022-08-09T17:18:54.410Z,22.82
2022-08-09T17:21:47.035Z,22.74
2022-08-09T17:24:47.539Z,22.65
2022-08-09T17:27:49.158Z,22.52
2022-08-09T17:30:47.555Z,22.41
2022-08-09T17:33:40.279Z,22.31
2022-08-09T17:36:32.825Z,22.22
2022-08-09T17:39:25.102Z,22.13
2022-08-09T17:42:41.259Z,22.03
2022-08-09T17:46:01.866Z,21.90
2022-08-09T17:48:46.506Z,21.77
2022-08-09T17:51:44.777Z,21.67
2022-08-09T17:54:38.801Z,21.57
2022-08-09T17:58:03.304Z,21.45
2022-08-09T18:00:46.676Z,21.33
2022-08-09T18:03:40.571Z,21.19
2022-08-09T18:06:33.968Z,21.07
2022-08-09T18:09:40.481Z,20.95
2022-08-09T18:12:40.515Z,20.80
2022-08-09T18:16:04.970Z,20.65
2022-08-09T18:18:50.803Z,20.48
2022-08-09T18:21:42.981Z,20.33
2022-08-09T18:24:40.500Z,20.18
2022-08-09T18:28:02.340Z,20.04
2022-08-09T18:30:49.199Z,19.90
2022-08-09T18:33:48.869Z,19.76
2022-08-09T18:36:49.509Z,19.62
2022-08-09T18:39:25.214Z,19.51
2022-08-09T18:42:17.853Z,19.38
2022-08-09T18:45:21.546Z,19.26
2022-08-09T18:48:30.134Z,19.10
2022-08-09T18:51:38.500Z,18.95
2022-08-09T18:54:42.224Z,18.79
2022-08-09T18:57:45.310Z,18.62
2022-08-09T19:00:38.068Z,18.48
2022-08-09T19:03:31.043Z,18.33
2022-08-09T19:06:50.360Z,18.17
2022-08-09T19:10:17.026Z,18.37
2022-08-09T19:13:19.272Z,19.73
2022-08-09T19:16:09.519Z,20.75
2022-08-09T19:19:01.828Z,21.11
2022-08-09T19:22:15.256Z,20.41
2022-08-09T19:25:42.562Z,19.78
2022-08-09T19:28:28.828Z,19.29
2022-08-09T19:31:21.294Z,18.95
2022-08-09T19:34:21.538Z,18.66
2022-08-09T19:37:17.204Z,18.38
2022-08-09T19:40:05.496Z,18.17
2022-08-09T19:42:58.234Z,18.26
2022-08-09T19:45:55.702Z,19.11
2022-08-09T19:49:00.744Z,19.67
2022-08-09T19:51:55.000Z,19.93
2022-08-09T19:54:48.968Z,20.46
2022-08-09T19:57:41.352Z,20.74
2022-08-09T20:00:34.883Z,20.06
2022-08-09T20:04:17.215Z,19.38
2022-08-09T20:06:39.965Z,18.82
2022-08-09T20:09:44.479Z,18.38
2022-08-09T20:12:45.846Z,18.03
2022-08-09T20:16:33.756Z,17.99
2022-08-09T20:18:52.018Z,18.77
2022-08-09T20:22:04.763Z,19.30
2022-08-09T20:25:02.176Z,19.99
2022-08-09T20:27:57.079Z,20.62
2022-08-09T20:30:49.729Z,20.83
2022-08-09T20:33:44.307Z,20.01
2022-08-09T20:36:37.353Z,19.20
2022-08-09T20:40:16.122Z,18.59
2022-08-09T20:42:53.199Z,18.07
2022-08-09T20:46:00.651Z,18.09
2022-08-09T20:49:05.189Z,19.25
2022-08-09T20:52:02.064Z,20.05
2022-08-09T20:54:58.097Z,20.51
2022-08-09T20:58:05.488Z,20.66
2022-08-09T21:01:33.327Z,19.70
2022-08-09T21:05:56.870Z,18.81
2022-08-09T21:07:38.644Z,18.17
2022-08-09T21:10:33.071Z,17.70
2022-08-09T21:13:27.936Z,17.59
2022-08-09T21:16:42.149Z,18.77
2022-08-09T21:20:17.512Z,19.64
2022-08-09T21:22:53.914Z,20.23
2022-08-09T21:25:55.699Z,20.60
2022-08-09T21:28:57.060Z,20.47
2022-08-09T21:31:49.829Z,19.49
2022-08-09T21:34:48.220Z,18.64
2022-08-09T21:37:58.765Z,17.99
2022-08-09T21:40:52.161Z,17.48
2022-08-09T21:43:56.711Z,17.45
2022-08-09T21:46:50.195Z,18.56
2022-08-09T21:49:43.473Z,19.38
2022-08-09T21:52:35.535Z,19.79
2022-08-09T21:55:29.879Z,20.00
2022-08-09T21:58:31.115Z,20.05
2022-08-09T22:01:45.054Z,19.18
2022-08-09T22:04:57.097Z,18.20
2022-08-09T22:07:53.061Z,17.52
2022-08-09T22:11:49.108Z,17.38
2022-08-09T22:13:51.188Z,18.51
2022-08-09T22:16:44.656Z,19.29
2022-08-09T22:19:59.015Z,19.80
2022-08-09T22:22:50.160Z,20.09
2022-08-09T22:26:06.056Z,20.00
2022-08-09T22:28:56.515Z,18.91
2022-08-09T22:31:56.756Z,18.02
2022-08-09T22:34:50.156Z,17.34
2022-08-09T22:38:03.303Z,17.19
2022-08-09T22:41:02.042Z,18.25
2022-08-09T22:44:01.579Z,19.01
2022-08-09T22:48:12.407Z,19.44
2022-08-09T22:50:09.874Z,19.71
2022-08-09T22:53:05.718Z,19.64
2022-08-09T22:56:29.801Z,18.68
2022-08-09T22:59:55.689Z,17.72
2022-08-09T23:02:24.909Z,17.02
2022-08-09T23:05:17.218Z,16.91
2022-08-09T23:08:29.986Z,17.96
2022-08-09T23:11:23.744Z,18.81
2022-08-09T23:14:17.462Z,19.23
2022-08-09T23:17:15.654Z,19.49
2022-08-09T23:20:10.498Z,19.71
2022-08-09T23:23:02.577Z,19.54
2022-08-09T23:25:56.054Z,18.52
2022-08-09T23:28:48.350Z,17.61
2022-08-09T23:31:42.094Z,16.91
2022-08-09T23:34:34.941Z,16.66
2022-08-09T23:37:27.080Z,17.55
2022-08-09T23:40:19.529Z,18.25
2022-08-09T23:43:13.828Z,18.64
2022-08-09T23:46:06.477Z,18.90
2022-08-09T23:48:59.082Z,19.31
2022-08-09T23:51:52.585Z,19.38
2022-08-09T23:54:45.521Z,18.36
2022-08-09T23:57:44.195Z,17.41
